createdAt,value
2019-05-05T00:01:25.019Z,90.79
2019-05-05T00:04:10.612Z,90.37
2019-05-05T00:06:38.685Z,89.61
2019-05-05T00:09:07.135Z,89.50
2019-05-05T00:11:49.952Z,89.66
2019-05-05T00:14:25.348Z,90.22
2019-05-05T00:17:09.338Z,90.02
2019-05-05T00:19:37.835Z,88.87
2019-05-05T00:22:05.751Z,88.80
2019-05-05T00:24:35.094Z,89.80
2019-05-05T00:27:04.307Z,88.79
2019-05-05T00:29:34.600Z,88.92
2019-05-05T00:32:02.354Z,89.54
2019-05-05T00:34:30.559Z,89.08
2019-05-05T00:36:58.354Z,89.71
2019-05-05T00:39:26.393Z,89.64
2019-05-05T00:41:55.478Z,90.26
2019-05-05T00:44:24.747Z,89.39
2019-05-05T00:47:18.403Z,89.37
2019-05-05T00:49:49.417Z,90.45
2019-05-05T00:52:17.543Z,90.53
2019-05-05T00:54:45.495Z,90.53
2019-05-05T00:57:14.995Z,89.85
2019-05-05T00:59:45.119Z,87.22
2019-05-05T01:02:47.715Z,87.73
2019-05-05T01:05:34.443Z,88.85
2019-05-05T01:08:05.231Z,89.58
2019-05-05T01:10:35.276Z,89.91
2019-05-05T01:13:04.750Z,90.28
2019-05-05T01:15:34.549Z,90.11
2019-05-05T01:18:04.747Z,89.06
2019-05-05T01:20:34.310Z,89.43
2019-05-05T01:23:04.455Z,88.12
2019-05-05T01:25:34.591Z,87.92
2019-05-05T01:28:02.499Z,87.77
2019-05-05T01:30:32.271Z,88.14
2019-05-05T01:33:07.126Z,88.38
2019-05-05T01:35:35.313Z,89.05
2019-05-05T01:38:09.068Z,89.00
2019-05-05T01:40:54.794Z,88.96
2019-05-05T01:43:22.689Z,89.32
2019-05-05T01:45:51.765Z,88.65
2019-05-05T01:48:19.823Z,88.03
2019-05-05T01:50:47.911Z,89.22
2019-05-05T01:53:16.021Z,88.10
2019-05-05T01:55:45.184Z,88.65
2019-05-05T01:58:15.292Z,88.90
2019-05-05T02:00:45.211Z,88.06
2019-05-05T02:03:14.764Z,87.76
2019-05-05T02:05:45.135Z,88.43
2019-05-05T02:08:15.189Z,87.90
2019-05-05T02:10:45.191Z,87.33
2019-05-05T02:13:12.952Z,86.44
2019-05-05T02:15:40.802Z,86.34
2019-05-05T02:18:09.102Z,87.20
2019-05-05T02:20:49.796Z,87.13
2019-05-05T02:23:17.901Z,87.68
2019-05-05T02:25:45.857Z,87.28
2019-05-05T02:28:14.968Z,86.20
2019-05-05T02:30:56.545Z,86.90
2019-05-05T02:33:26.123Z,87.77
2019-05-05T02:35:55.608Z,86.41
2019-05-05T02:38:26.146Z,86.57
2019-05-05T02:40:54.855Z,87.05
2019-05-05T02:43:25.049Z,85.48
2019-05-05T02:46:18.981Z,84.74
2019-05-05T02:48:48.987Z,84.44
2019-05-05T02:51:17.067Z,85.00
2019-05-05T02:53:47.495Z,85.59
2019-05-05T02:56:20.851Z,85.39
2019-05-05T02:58:51.297Z,84.37
2019-05-05T03:01:38.870Z,83.70
2019-05-05T03:04:07.278Z,83.38
2019-05-05T03:06:37.896Z,84.86
2019-05-05T03:09:06.363Z,85.59
2019-05-05T03:11:35.232Z,84.83
2019-05-05T03:14:04.165Z,85.52
2019-05-05T03:16:36.073Z,85.09
2019-05-05T03:19:04.489Z,82.90
2019-05-05T03:21:33.521Z,82.53
2019-05-05T03:24:03.698Z,84.59
2019-05-05T03:26:33.885Z,84.12
2019-05-05T03:29:04.770Z,84.75
2019-05-05T03:31:35.185Z,81.52
2019-05-05T03:34:05.855Z,82.63
2019-05-05T03:36:33.993Z,84.27
2019-05-05T03:39:05.137Z,83.31
2019-05-05T03:41:39.525Z,82.30
2019-05-05T03:44:14.115Z,84.82
2019-05-05T03:46:43.853Z,83.68
2019-05-05T03:49:13.988Z,83.79
2019-05-05T03:51:43.866Z,83.39
2019-05-05T03:54:14.450Z,82.65
2019-05-05T03:56:44.109Z,83.39
2019-05-05T03:59:14.110Z,82.45
2019-05-05T04:01:51.274Z,82.99
2019-05-05T04:04:24.516Z,84.85
2019-05-05T04:06:54.002Z,84.62
2019-05-05T04:09:24.315Z,84.33
2019-05-05T04:11:53.991Z,83.55
2019-05-05T04:14:24.740Z,83.37
2019-05-05T04:17:26.306Z,83.54
2019-05-05T04:19:54.955Z,83.28
2019-05-05T04:22:23.807Z,83.75
2019-05-05T04:24:53.971Z,82.94
2019-05-05T04:27:23.793Z,83.69
2019-05-05T04:29:54.310Z,84.45
2019-05-05T04:32:21.960Z,81.69
2019-05-05T04:34:51.055Z,82.82
2019-05-05T04:37:18.947Z,83.33
2019-05-05T04:39:46.838Z,83.01
2019-05-05T04:42:14.856Z,84.02
2019-05-05T04:44:44.932Z,84.08
2019-05-05T04:47:19.275Z,84.33
2019-05-05T04:50:06.844Z,83.85
2019-05-05T04:52:35.103Z,84.54
2019-05-05T04:55:03.905Z,82.93
2019-05-05T04:57:32.259Z,83.80
2019-05-05T05:00:00.203Z,83.79
2019-05-05T05:02:56.294Z,83.71
2019-05-05T05:05:28.764Z,82.47
2019-05-05T05:07:58.100Z,84.05
2019-05-05T05:10:26.297Z,83.27
2019-05-05T05:12:54.499Z,83.82
2019-05-05T05:15:23.914Z,83.08
2019-05-05T05:17:59.305Z,82.90
2019-05-05T05:20:27.649Z,81.80
2019-05-05T05:22:55.732Z,82.17
2019-05-05T05:25:24.849Z,83.37
2019-05-05T05:27:53.637Z,83.64
2019-05-05T05:30:24.121Z,82.71
2019-05-05T05:32:53.862Z,82.10
2019-05-05T05:35:24.220Z,82.89
2019-05-05T05:37:53.992Z,83.92
2019-05-05T05:40:34.083Z,83.42
2019-05-05T05:43:04.661Z,83.89
2019-05-05T05:46:01.398Z,80.18
2019-05-05T05:48:53.929Z,82.24
2019-05-05T05:51:23.803Z,82.45
2019-05-05T05:53:51.971Z,81.06
2019-05-05T05:56:20.068Z,80.90
2019-05-05T05:58:48.254Z,81.50
2019-05-05T06:01:16.278Z,80.86
2019-05-05T06:03:44.499Z,81.14
2019-05-05T06:06:13.811Z,82.08
2019-05-05T06:08:43.822Z,80.13
2019-05-05T06:11:13.537Z,80.44
2019-05-05T06:13:41.023Z,81.27
2019-05-05T06:16:09.116Z,80.92
2019-05-05T06:18:38.096Z,80.74
2019-05-05T06:21:06.094Z,81.14
2019-05-05T06:23:34.591Z,82.01
2019-05-05T06:26:06.959Z,81.97
2019-05-05T06:28:34.229Z,80.12
2019-05-05T06:31:02.242Z,81.22
2019-05-05T06:33:30.201Z,79.43
2019-05-05T06:35:57.832Z,80.13
2019-05-05T06:38:25.891Z,79.81
2019-05-05T06:41:14.668Z,80.18
2019-05-05T06:44:05.147Z,80.55
2019-05-05T06:46:53.769Z,79.73
2019-05-05T06:49:23.790Z,79.30
2019-05-05T06:51:51.926Z,81.34
2019-05-05T06:54:19.785Z,80.40
2019-05-05T06:56:47.900Z,79.21
2019-05-05T06:59:15.961Z,77.96
2019-05-05T07:01:44.334Z,78.31
2019-05-05T07:04:13.946Z,78.19
2019-05-05T07:06:53.612Z,78.77
2019-05-05T07:09:13.868Z,77.34
2019-05-05T07:11:43.637Z,76.81
2019-05-05T07:14:14.126Z,78.66
2019-05-05T07:16:43.704Z,77.55
2019-05-05T07:19:11.857Z,76.97
2019-05-05T07:21:39.771Z,76.67
2019-05-05T07:24:07.576Z,76.20
2019-05-05T07:26:35.977Z,75.36
2019-05-05T07:29:04.638Z,74.23
2019-05-05T07:31:34.258Z,75.06
2019-05-05T07:34:02.274Z,73.21
2019-05-05T07:36:49.801Z,74.44
2019-05-05T07:39:17.746Z,74.11
2019-05-05T07:41:46.026Z,73.79
2019-05-05T07:44:25.743Z,74.68
2019-05-05T07:46:44.114Z,73.30
2019-05-05T07:49:13.932Z,74.22
2019-05-05T07:51:43.979Z,73.23
2019-05-05T07:54:14.312Z,70.56
2019-05-05T07:56:44.212Z,70.80
2019-05-05T07:59:14.558Z,71.13
2019-05-05T08:01:45.834Z,70.91
2019-05-05T08:04:13.667Z,72.57
2019-05-05T08:06:42.007Z,71.96
2019-05-05T08:09:09.936Z,71.73
2019-05-05T08:11:38.005Z,71.21
2019-05-05T08:14:06.187Z,71.06
2019-05-05T08:16:57.055Z,70.90
2019-05-05T08:19:44.180Z,71.23
2019-05-05T08:22:14.164Z,69.13
2019-05-05T08:25:04.341Z,68.52
2019-05-05T08:27:58.037Z,70.42
2019-05-05T08:30:45.950Z,66.67
2019-05-05T08:33:14.223Z,67.78
2019-05-05T08:35:42.189Z,67.06
2019-05-05T08:38:10.192Z,65.82
2019-05-05T08:40:38.387Z,66.36
2019-05-05T08:43:06.513Z,65.83
2019-05-05T08:45:35.149Z,65.49
2019-05-05T08:48:04.928Z,65.18
2019-05-05T08:50:34.827Z,64.94
2019-05-05T08:53:04.473Z,63.17
2019-05-05T08:55:33.940Z,65.33
2019-05-05T08:58:04.373Z,64.60
2019-05-05T09:00:33.820Z,65.66
2019-05-05T09:03:03.779Z,65.60
2019-05-05T09:05:34.368Z,64.95
2019-05-05T09:08:04.544Z,64.19
2019-05-05T09:10:34.274Z,64.31
2019-05-05T09:13:03.874Z,62.85
2019-05-05T09:15:33.667Z,63.08
2019-05-05T09:18:01.888Z,63.35
2019-05-05T09:20:29.950Z,62.99
2019-05-05T09:22:57.904Z,61.76
2019-05-05T09:25:45.407Z,62.20
2019-05-05T09:28:19.827Z,63.14
2019-05-05T09:30:48.362Z,63.43
2019-05-05T09:33:18.305Z,63.92
2019-05-05T09:35:46.265Z,63.21
2019-05-05T09:38:16.931Z,62.72
2019-05-05T09:40:45.056Z,62.11
2019-05-05T09:43:14.711Z,62.36
2019-05-05T09:45:44.144Z,62.75
2019-05-05T09:48:13.969Z,61.20
2019-05-05T09:50:43.744Z,60.41
2019-05-05T09:53:14.350Z,61.63
2019-05-05T09:55:44.086Z,61.79
2019-05-05T09:58:13.736Z,61.88
2019-05-05T10:00:44.228Z,61.47
2019-05-05T10:03:14.310Z,62.25
2019-05-05T10:05:42.091Z,60.76
2019-05-05T10:08:10.000Z,62.42
2019-05-05T10:10:38.278Z,59.94
2019-05-05T10:13:06.267Z,61.74
2019-05-05T10:15:34.299Z,62.06
2019-05-05T10:18:03.499Z,61.02
2019-05-05T10:20:34.383Z,60.51
2019-05-05T10:23:02.811Z,62.01
2019-05-05T10:25:44.658Z,62.05
2019-05-05T10:28:13.638Z,60.14
2019-05-05T10:30:41.787Z,61.21
2019-05-05T10:33:09.811Z,61.53
2019-05-05T10:35:37.680Z,60.98
2019-05-05T10:38:05.729Z,62.78
2019-05-05T10:40:34.179Z,61.52
2019-05-05T10:43:04.180Z,60.14
2019-05-05T10:45:32.228Z,62.15
2019-05-05T10:48:00.284Z,62.62
2019-05-05T10:50:28.185Z,63.18
2019-05-05T10:52:56.099Z,59.91
2019-05-05T10:55:24.301Z,62.56
2019-05-05T10:57:54.260Z,61.26
2019-05-05T11:00:38.331Z,60.71
2019-05-05T11:03:06.256Z,62.26
2019-05-05T11:05:34.051Z,61.04
2019-05-05T11:08:04.369Z,61.95
2019-05-05T11:10:33.906Z,61.23
2019-05-05T11:13:02.027Z,62.31
2019-05-05T11:15:30.177Z,62.30
2019-05-05T11:17:58.286Z,62.08
2019-05-05T11:20:26.707Z,62.75
2019-05-05T11:22:54.837Z,62.29
2019-05-05T11:25:24.271Z,63.79
2019-05-05T11:27:54.146Z,63.87
2019-05-05T11:30:34.005Z,62.86
2019-05-05T11:33:37.100Z,61.38
2019-05-05T11:36:17.731Z,61.88
2019-05-05T11:38:45.964Z,62.17
2019-05-05T11:41:14.536Z,62.01
2019-05-05T11:43:43.251Z,63.46
2019-05-05T11:46:11.395Z,62.94
2019-05-05T11:48:39.455Z,62.88
2019-05-05T11:51:07.555Z,63.26
2019-05-05T11:53:35.541Z,63.64
2019-05-05T11:56:04.171Z,65.75
2019-05-05T11:58:34.096Z,63.76
2019-05-05T12:01:03.760Z,62.53
2019-05-05T12:03:34.006Z,63.16
2019-05-05T12:06:04.029Z,61.70
2019-05-05T12:08:31.857Z,64.26
2019-05-05T12:11:01.198Z,61.48
2019-05-05T12:13:29.102Z,62.74
2019-05-05T12:16:01.332Z,62.01
2019-05-05T12:18:29.347Z,62.40
2019-05-05T12:20:57.500Z,63.50
2019-05-05T12:23:25.404Z,61.98
2019-05-05T12:26:15.763Z,63.36
2019-05-05T12:29:03.399Z,63.53
2019-05-05T12:31:31.517Z,63.18
2019-05-05T12:33:59.688Z,61.43
2019-05-05T12:36:27.349Z,62.37
2019-05-05T12:38:55.611Z,62.31
2019-05-05T12:41:24.114Z,63.14
2019-05-05T12:43:54.853Z,61.81
2019-05-05T12:47:00.217Z,63.41
2019-05-05T12:49:29.479Z,61.93
2019-05-05T12:51:57.386Z,61.96
2019-05-05T12:54:25.663Z,61.40
2019-05-05T12:56:53.960Z,62.83
2019-05-05T12:59:25.074Z,62.85
2019-05-05T13:01:54.679Z,62.73
2019-05-05T13:04:24.544Z,62.59
2019-05-05T13:06:54.068Z,63.08
2019-05-05T13:09:24.391Z,61.90
2019-05-05T13:11:54.127Z,62.33
2019-05-05T13:14:22.378Z,62.35
2019-05-05T13:16:53.926Z,60.75
2019-05-05T13:19:29.924Z,62.39
2019-05-05T13:22:30.533Z,61.80
2019-05-05T13:25:10.003Z,61.97
2019-05-05T13:27:40.404Z,62.88
2019-05-05T13:30:08.626Z,62.38
2019-05-05T13:32:38.034Z,62.33
2019-05-05T13:35:06.587Z,62.26
2019-05-05T13:37:34.542Z,62.57
2019-05-05T13:40:04.483Z,63.09
2019-05-05T13:42:32.966Z,62.34
2019-05-05T13:45:18.747Z,62.80
2019-05-05T13:47:47.040Z,63.43
2019-05-05T13:50:24.620Z,62.30
2019-05-05T13:52:52.804Z,62.46
2019-05-05T13:55:20.876Z,63.44
2019-05-05T13:57:48.880Z,61.84
2019-05-05T14:00:18.526Z,63.11
2019-05-05T14:02:47.767Z,63.48
2019-05-05T14:05:15.950Z,62.88
2019-05-05T14:07:44.419Z,64.11
2019-05-05T14:10:14.402Z,63.37
2019-05-05T14:12:43.748Z,63.35
2019-05-05T14:15:17.041Z,62.75
2019-05-05T14:17:46.400Z,63.36
2019-05-05T14:20:16.722Z,63.29
2019-05-05T14:22:44.953Z,63.06
2019-05-05T14:25:17.558Z,64.87
2019-05-05T14:27:45.570Z,64.03
2019-05-05T14:30:37.719Z,63.82
2019-05-05T14:33:08.028Z,63.53
2019-05-05T14:36:00.934Z,65.00
2019-05-05T14:38:36.396Z,64.97
2019-05-05T14:41:04.279Z,64.79
2019-05-05T14:43:34.397Z,63.45
2019-05-05T14:46:03.727Z,64.16
2019-05-05T14:48:34.046Z,64.30
2019-05-05T14:51:03.974Z,65.39
2019-05-05T14:53:34.690Z,64.87
2019-05-05T14:56:04.458Z,64.75
2019-05-05T14:58:33.105Z,64.58
2019-05-05T15:01:01.135Z,65.11
2019-05-05T15:03:29.408Z,65.41
2019-05-05T15:06:07.964Z,66.45
2019-05-05T15:08:54.492Z,66.65
2019-05-05T15:11:50.143Z,66.82
2019-05-05T15:14:18.048Z,66.33
2019-05-05T15:16:46.457Z,65.84
2019-05-05T15:19:14.803Z,66.05
2019-05-05T15:21:44.295Z,67.09
2019-05-05T15:24:13.846Z,66.58
2019-05-05T15:26:51.250Z,66.74
2019-05-05T15:29:11.969Z,66.83
2019-05-05T15:31:39.951Z,67.06
2019-05-05T15:34:08.334Z,67.95
2019-05-05T15:36:36.873Z,67.20
2019-05-05T15:39:07.468Z,67.21
2019-05-05T15:41:35.572Z,67.43
2019-05-05T15:44:04.088Z,66.62
2019-05-05T15:46:33.676Z,66.19
2019-05-05T15:49:04.022Z,66.82
2019-05-05T15:51:31.850Z,66.78
2019-05-05T15:54:00.001Z,66.32
2019-05-05T15:56:27.710Z,67.01
2019-05-05T15:58:55.787Z,66.52
2019-05-05T16:01:23.851Z,66.99
2019-05-05T16:03:51.940Z,67.51
2019-05-05T16:06:20.203Z,67.21
2019-05-05T16:08:48.356Z,66.84
2019-05-05T16:11:16.229Z,67.26
2019-05-05T16:13:44.284Z,66.88
2019-05-05T16:16:37.980Z,67.00
2019-05-05T16:19:34.639Z,66.99
2019-05-05T16:22:06.129Z,67.69
2019-05-05T16:24:36.719Z,67.44
2019-05-05T16:27:18.352Z,67.58
2019-05-05T16:29:34.689Z,68.17
2019-05-05T16:32:05.453Z,67.28
2019-05-05T16:34:33.688Z,66.78
2019-05-05T16:37:03.989Z,68.36
2019-05-05T16:39:33.703Z,68.58
2019-05-05T16:42:01.955Z,67.68
2019-05-05T16:44:29.795Z,67.78
2019-05-05T16:46:57.879Z,69.67
2019-05-05T16:49:27.614Z,68.56
2019-05-05T16:52:07.029Z,68.27
2019-05-05T16:54:40.532Z,68.52
2019-05-05T16:57:08.709Z,68.11
2019-05-05T16:59:36.840Z,68.21
2019-05-05T17:02:04.927Z,68.32
2019-05-05T17:04:33.179Z,68.89
2019-05-05T17:07:01.318Z,70.01
2019-05-05T17:09:29.015Z,69.29
2019-05-05T17:12:08.692Z,69.31
2019-05-05T17:14:59.520Z,69.88
2019-05-05T17:17:36.924Z,70.38
2019-05-05T17:20:07.808Z,69.20
2019-05-05T17:22:39.838Z,69.62
2019-05-05T17:25:09.137Z,69.04
2019-05-05T17:27:47.805Z,68.83
2019-05-05T17:30:07.500Z,79.02
2019-05-05T17:32:35.577Z,69.66
2019-05-05T17:35:03.909Z,69.41
2019-05-05T17:37:33.545Z,66.91
2019-05-05T17:40:33.877Z,69.48
2019-05-05T17:43:24.710Z,68.84
2019-05-05T17:46:01.472Z,69.56
2019-05-05T17:48:36.181Z,66.05
2019-05-05T17:51:31.365Z,65.29
2019-05-05T17:54:18.938Z,67.63
2019-05-05T17:56:47.009Z,68.36
2019-05-05T17:59:15.069Z,68.80
2019-05-05T18:01:44.225Z,64.42
2019-05-05T18:04:13.594Z,67.81
2019-05-05T18:06:46.492Z,66.44
2019-05-05T18:09:17.622Z,65.12
2019-05-05T18:12:05.194Z,67.82
2019-05-05T18:14:33.683Z,62.74
2019-05-05T18:17:04.221Z,64.71
2019-05-05T18:19:33.991Z,65.03
2019-05-05T18:22:02.262Z,66.05
2019-05-05T18:24:30.419Z,66.87
2019-05-05T18:26:58.370Z,67.41
2019-05-05T18:29:26.462Z,68.35
2019-05-05T18:31:54.537Z,67.34
2019-05-05T18:34:23.619Z,68.24
2019-05-05T18:36:54.216Z,68.56
2019-05-05T18:39:21.707Z,68.59
2019-05-05T18:41:59.939Z,68.96
2019-05-05T18:44:40.501Z,68.85
2019-05-05T18:47:12.836Z,69.09
2019-05-05T18:49:40.540Z,69.88
2019-05-05T18:52:08.933Z,69.88
2019-05-05T18:54:37.993Z,70.13
2019-05-05T18:57:07.337Z,70.41
2019-05-05T18:59:35.596Z,70.26
2019-05-05T19:02:14.430Z,70.66
2019-05-05T19:05:04.881Z,69.48
2019-05-05T19:07:53.024Z,68.17
2019-05-05T19:10:11.915Z,68.85
2019-05-05T19:12:39.803Z,68.85
2019-05-05T19:15:07.797Z,68.29
2019-05-05T19:17:35.736Z,68.57
2019-05-05T19:20:10.115Z,69.66
2019-05-05T19:22:38.038Z,68.96
2019-05-05T19:25:16.446Z,68.61
2019-05-05T19:27:45.407Z,68.86
2019-05-05T19:30:14.292Z,69.49
2019-05-05T19:32:43.747Z,69.17
2019-05-05T19:35:11.877Z,68.21
2019-05-05T19:37:39.502Z,68.74
2019-05-05T19:40:07.484Z,69.04
2019-05-05T19:42:35.088Z,68.74
2019-05-05T19:45:04.256Z,68.35
2019-05-05T19:47:33.995Z,68.51
2019-05-05T19:50:08.624Z,67.86
2019-05-05T19:52:36.633Z,67.90
2019-05-05T19:55:05.166Z,67.35
2019-05-05T19:57:33.664Z,67.70
2019-05-05T20:00:04.042Z,68.38
2019-05-05T20:02:34.163Z,67.51
2019-05-05T20:05:04.055Z,66.95
2019-05-05T20:07:31.889Z,66.49
2019-05-05T20:09:59.893Z,65.83
2019-05-05T20:12:27.561Z,67.46
2019-05-05T20:14:57.539Z,66.39
2019-05-05T20:17:33.840Z,65.83
2019-05-05T20:20:04.322Z,66.16
2019-05-05T20:22:32.024Z,65.93
2019-05-05T20:25:00.726Z,66.27
2019-05-05T20:27:28.939Z,65.19
2019-05-05T20:29:57.208Z,65.02
2019-05-05T20:32:34.210Z,64.83
2019-05-05T20:35:30.817Z,65.07
2019-05-05T20:38:14.261Z,64.58
2019-05-05T20:40:44.366Z,65.45
2019-05-05T20:43:14.359Z,64.92
2019-05-05T20:45:44.249Z,65.05
2019-05-05T20:48:12.579Z,65.86
2019-05-05T20:50:40.588Z,65.63
2019-05-05T20:53:08.936Z,64.47
2019-05-05T20:55:37.122Z,65.07
2019-05-05T20:58:05.484Z,64.75
2019-05-05T21:00:34.717Z,65.76
2019-05-05T21:03:04.698Z,64.79
2019-05-05T21:05:34.341Z,65.37
2019-05-05T21:08:04.781Z,65.61
2019-05-05T21:10:34.739Z,64.12
2019-05-05T21:13:03.721Z,63.64
2019-05-05T21:15:34.059Z,64.00
2019-05-05T21:18:02.269Z,64.32
2019-05-05T21:20:30.652Z,65.36
2019-05-05T21:23:14.277Z,64.42
2019-05-05T21:25:45.345Z,64.22
2019-05-05T21:28:14.593Z,64.95
2019-05-05T21:30:42.521Z,64.05
2019-05-05T21:33:10.759Z,65.39
2019-05-05T21:35:38.740Z,64.91
2019-05-05T21:38:06.984Z,64.72
2019-05-05T21:40:35.335Z,64.95
2019-05-05T21:43:05.259Z,64.76
2019-05-05T21:45:34.707Z,64.96
2019-05-05T21:48:04.450Z,65.40
2019-05-05T21:50:38.054Z,65.09
2019-05-05T21:53:21.796Z,66.07
2019-05-05T21:56:21.395Z,65.89
2019-05-05T21:58:49.848Z,66.00
2019-05-05T22:01:19.674Z,65.78
2019-05-05T22:03:47.846Z,67.12
2019-05-05T22:06:16.171Z,65.31
2019-05-05T22:08:44.463Z,64.83
2019-05-05T22:11:14.616Z,65.39
2019-05-05T22:13:44.223Z,66.25
2019-05-05T22:16:13.615Z,65.78
2019-05-05T22:18:41.844Z,65.26
2019-05-05T22:21:29.470Z,66.55
2019-05-05T22:24:16.405Z,65.60
2019-05-05T22:26:44.657Z,66.09
2019-05-05T22:29:14.114Z,65.17
2019-05-05T22:31:43.189Z,65.48
2019-05-05T22:34:11.193Z,65.22
2019-05-05T22:36:39.255Z,65.60
2019-05-05T22:39:08.232Z,66.64
2019-05-05T22:41:36.662Z,66.75
2019-05-05T22:44:04.803Z,66.33
2019-05-05T22:46:34.748Z,66.99
2019-05-05T22:49:03.929Z,66.49
2019-05-05T22:51:33.748Z,66.58
2019-05-05T22:54:03.954Z,67.05
2019-05-05T22:56:33.746Z,66.31
2019-05-05T22:59:04.326Z,66.59
2019-05-05T23:01:32.286Z,67.62
2019-05-05T23:04:14.335Z,68.54
2019-05-05T23:06:46.227Z,67.66
2019-05-05T23:09:14.793Z,68.85
2019-05-05T23:11:44.449Z,69.45
2019-05-05T23:14:27.129Z,71.27
2019-05-05T23:17:16.464Z,71.29
2019-05-05T23:19:53.918Z,71.94
2019-05-05T23:22:28.540Z,72.00
2019-05-05T23:25:03.730Z,71.73
2019-05-05T23:27:46.317Z,72.40
2019-05-05T23:30:16.043Z,71.40
2019-05-05T23:32:45.197Z,71.88
2019-05-05T23:35:14.259Z,71.50
2019-05-05T23:37:42.340Z,70.88
2019-05-05T23:40:10.744Z,71.48
2019-05-05T23:42:38.851Z,71.94
2019-05-05T23:45:07.191Z,72.25
2019-05-05T23:47:35.389Z,70.95
2019-05-05T23:50:04.527Z,71.34
2019-05-05T23:52:34.842Z,72.23
2019-05-05T23:55:04.023Z,70.84
2019-05-05T23:57:32.439Z,71.71
